Аэропорт: Атырау. Атырау

ICAO: UATG

METAR:
2018/09/23 11:00
UATG 231100Z 19003MPS 140V270 CAVOK 24/07 Q1020 R14/CLRD70 NOSIG RMK QFE767/1023
METAR:
2018/09/23 06:18
TAF UATG 230501Z 2306/2406 VRB02MPS CAVOK TX24/2311Z TN08/2402Z 
      BECMG 2311/2313 18007MPS